Time;durP1;ratioP1;P1;durP2;ratioP2;P2;SDS_P1;SDS_P2;PMS_P1;PMS_P2;Temp;Humidity;BMP_temperature;BMP_pressure;BME280_temperature;BME280_humidity;BME280_pressure;Samples;Min_cycle;Max_cycle;Signal;HPM_P1;HPM_P2
2023/08/22 00:00:07;;;;;;;2.90;1.83;;;17.30;60.60;;;;;;5074435;28;20500;-66
2023/08/22 00:02:35;;;;;;;6.17;2.00;;;17.50;60.10;;;;;;5080256;28;20182;-69
2023/08/22 00:05:02;;;;;;;3.67;1.90;;;17.60;59.00;;;;;;5078468;28;20649;-67
2023/08/22 00:07:29;;;;;;;6.50;2.17;;;17.60;59.00;;;;;;5077517;28;20538;-68
2023/08/22 00:09:57;;;;;;;5.30;2.03;;;17.50;59.40;;;;;;5078174;28;20310;-68
2023/08/22 00:12:24;;;;;;;6.23;1.97;;;17.60;59.60;;;;;;5078192;28;20257;-66
2023/08/22 00:14:52;;;;;;;4.53;2.40;;;17.70;59.80;;;;;;5078301;28;20210;-67
2023/08/22 00:17:20;;;;;;;4.70;1.87;;;17.80;59.20;;;;;;5075792;28;20210;-66
2023/08/22 00:19:47;;;;;;;5.17;2.00;;;17.90;59.30;;;;;;5075381;28;20490;-67
2023/08/22 00:22:14;;;;;;;5.40;1.90;;;17.80;58.80;;;;;;5075808;28;20584;-76
2023/08/22 00:24:42;;;;;;;5.43;1.90;;;17.80;59.70;;;;;;5079840;28;20197;-74
2023/08/22 00:27:11;;;;;;;4.10;1.70;;;18.20;59.20;;;;;;5076744;28;20310;-75
2023/08/22 00:29:39;;;;;;;4.67;2.03;;;18.60;57.80;;;;;;5054491;28;20256;-72
2023/08/22 00:32:06;;;;;;;5.60;2.10;;;18.80;57.40;;;;;;5073153;28;20195;-70
2023/08/22 00:34:33;;;;;;;3.63;2.00;;;19.00;56.80;;;;;;5079329;28;20171;-75
2023/08/22 00:37:01;;;;;;;3.50;1.60;;;19.30;56.60;;;;;;5077300;28;20209;-73
2023/08/22 00:39:28;;;;;;;2.57;1.70;;;19.60;55.60;;;;;;5078948;28;20210;-74
2023/08/22 00:41:55;;;;;;;6.07;2.37;;;19.80;54.40;;;;;;5078542;28;20174;-70
2023/08/22 00:44:23;;;;;;;5.83;1.87;;;19.90;54.50;;;;;;5081792;28;20186;-75
2023/08/22 00:46:50;;;;;;;4.23;1.90;;;19.80;54.40;;;;;;5078196;28;20202;-74
2023/08/22 00:49:18;;;;;;;10.47;2.20;;;20.00;54.50;;;;;;5084618;28;20178;-75
2023/08/22 00:51:46;;;;;;;5.40;2.00;;;20.30;54.30;;;;;;5075252;28;20202;-75
2023/08/22 00:54:15;;;;;;;6.07;1.80;;;20.50;53.10;;;;;;5074150;28;20179;-74
2023/08/22 00:56:42;;;;;;;4.27;1.80;;;20.70;52.70;;;;;;5073789;28;20302;-76
2023/08/22 00:59:10;;;;;;;4.07;1.70;;;20.60;52.50;;;;;;5075731;28;20201;-73
2023/08/22 01:01:38;;;;;;;7.67;2.40;;;20.60;52.60;;;;;;5072683;28;20179;-73
2023/08/22 01:04:05;;;;;;;4.87;2.07;;;20.90;51.40;;;;;;5078615;28;20265;-66
2023/08/22 01:06:52;;;;;;;5.97;1.50;;;20.90;51.70;;;;;;5076746;28;20660;-72
2023/08/22 01:09:31;;;;;;;5.23;2.00;;;21.20;50.10;;;;;;5077199;28;20218;-69
2023/08/22 01:12:24;;;;;;;3.13;1.60;;;21.40;49.30;;;;;;5073376;28;20318;-71
2023/08/22 01:15:10;;;;;;;3.27;1.50;;;21.60;48.50;;;;;;5072451;28;20182;-70
2023/08/22 01:17:38;;;;;;;1.53;1.30;;;21.60;48.70;;;;;;5076720;28;20215;-67
2023/08/22 01:20:11;;;;;;;8.27;1.90;;;21.80;48.30;;;;;;5077156;28;20671;-66
2023/08/22 01:22:42;;;;;;;7.73;1.60;;;22.00;48.30;;;;;;5073139;28;20261;-77
2023/08/22 01:25:10;;;;;;;4.17;1.40;;;22.00;47.90;;;;;;5075130;28;20211;-68
2023/08/22 01:28:05;;;;;;;8.07;2.07;;;22.30;47.40;;;;;;5057151;28;20191;-66
2023/08/22 01:31:10;;;;;;;9.40;2.33;;;22.40;47.60;;;;;;5076778;28;20171;-67
2023/08/22 01:33:58;;;;;;;4.40;2.13;;;22.90;47.30;;;;;;5075047;28;20324;-69
2023/08/22 01:36:27;;;;;;;4.93;2.23;;;22.80;48.20;;;;;;5077838;28;20222;-71
2023/08/22 01:38:55;;;;;;;5.83;2.00;;;23.10;48.30;;;;;;5072763;28;20171;-70
2023/08/22 01:41:24;;;;;;;6.43;2.10;;;23.30;46.70;;;;;;5072135;28;20194;-71
2023/08/22 01:43:51;;;;;;;6.47;1.87;;;23.30;47.40;;;;;;5074675;28;20179;-73
2023/08/22 01:46:19;;;;;;;9.27;1.90;;;23.40;47.10;;;;;;5077690;28;20281;-70
2023/08/22 01:48:46;;;;;;;3.30;1.90;;;23.50;47.00;;;;;;5055860;28;20547;-66
2023/08/22 01:51:13;;;;;;;4.03;1.63;;;23.50;46.20;;;;;;5076923;28;20214;-66
2023/08/22 01:53:41;;;;;;;3.03;1.33;;;23.90;45.70;;;;;;5071127;28;20637;-75
2023/08/22 01:56:08;;;;;;;1.90;1.03;;;24.30;45.00;;;;;;5075538;28;20207;-69
2023/08/22 01:58:35;;;;;;;6.90;1.30;;;24.30;43.40;;;;;;5071944;28;20191;-72
2023/08/22 02:01:12;;;;;;;4.47;1.23;;;24.50;42.80;;;;;;5078387;28;20246;-67
2023/08/22 02:03:41;;;;;;;2.43;1.23;;;24.60;41.70;;;;;;5075873;28;20197;-66
2023/08/22 02:06:08;;;;;;;4.77;1.17;;;24.70;42.20;;;;;;5078407;28;20175;-66
2023/08/22 02:08:38;;;;;;;4.17;1.07;;;24.40;42.20;;;;;;5076154;28;20237;-71
2023/08/22 02:11:05;;;;;;;4.90;1.40;;;24.30;42.70;;;;;;5073129;28;20194;-69
2023/08/22 02:13:33;;;;;;;6.13;1.30;;;24.30;41.50;;;;;;5073685;28;20168;-69
2023/08/22 02:16:00;;;;;;;2.30;1.20;;;24.50;42.10;;;;;;5077292;28;20183;-65
2023/08/22 02:18:28;;;;;;;3.23;1.27;;;24.80;41.50;;;;;;5074441;28;20555;-70
2023/08/22 02:20:57;;;;;;;4.37;1.20;;;25.10;41.00;;;;;;5075521;28;20221;-68
2023/08/22 02:23:26;;;;;;;3.30;1.00;;;25.60;40.00;;;;;;5076367;28;20195;-75
2023/08/22 02:25:54;;;;;;;3.07;1.27;;;25.90;38.90;;;;;;5075068;28;20187;-67
2023/08/22 02:28:21;;;;;;;1.57;0.93;;;26.00;37.90;;;;;;5075977;28;20170;-70
2023/08/22 02:30:48;;;;;;;2.97;1.10;;;26.30;38.20;;;;;;5076232;28;20186;-68
2023/08/22 02:33:16;;;;;;;5.63;1.10;;;26.40;37.50;;;;;;5073128;28;20618;-66
2023/08/22 02:35:43;;;;;;;3.90;1.00;;;26.30;37.50;;;;;;5074851;28;20226;-67
2023/08/22 02:38:10;;;;;;;2.67;1.10;;;26.10;38.70;;;;;;5073885;28;20184;-75
2023/08/22 02:40:38;;;;;;;2.23;0.83;;;25.80;37.40;;;;;;5073032;28;20194;-70
2023/08/22 02:43:06;;;;;;;1.23;0.70;;;25.90;35.20;;;;;;5074783;28;20285;-67
2023/08/22 02:45:33;;;;;;;1.60;0.80;;;26.10;34.40;;;;;;5074262;28;20191;-67
2023/08/22 02:48:00;;;;;;;1.00;0.83;;;26.00;34.30;;;;;;5072817;28;20660;-66
2023/08/22 02:50:27;;;;;;;3.03;0.73;;;26.30;34.20;;;;;;5073968;28;20190;-65
2023/08/22 02:52:55;;;;;;;1.87;0.70;;;26.30;32.40;;;;;;5073597;28;20586;-70
2023/08/22 02:55:22;;;;;;;1.80;0.60;;;26.30;31.50;;;;;;5072666;28;20186;-67
2023/08/22 02:57:49;;;;;;;2.33;0.80;;;26.30;29.10;;;;;;5071597;28;20227;-65
2023/08/22 03:00:18;;;;;;;1.60;0.70;;;26.10;29.60;;;;;;5074370;28;20176;-68
2023/08/22 03:02:45;;;;;;;0.87;0.70;;;26.10;29.20;;;;;;5073258;28;20195;-66
2023/08/22 03:05:12;;;;;;;1.33;0.80;;;26.60;28.60;;;;;;5075091;28;20213;-70
2023/08/22 03:07:40;;;;;;;4.13;1.03;;;26.40;28.30;;;;;;5074953;28;20554;-71
2023/08/22 03:10:08;;;;;;;3.13;0.70;;;26.40;28.20;;;;;;5076807;28;20254;-66
2023/08/22 03:12:36;;;;;;;0.97;0.70;;;26.40;28.50;;;;;;5069300;28;20279;-67
2023/08/22 03:15:04;;;;;;;1.00;0.57;;;26.70;28.30;;;;;;5072647;28;20187;-76
2023/08/22 03:17:31;;;;;;;1.50;0.50;;;26.50;28.20;;;;;;5073517;28;20222;-67
2023/08/22 03:19:59;;;;;;;3.40;0.70;;;26.70;27.10;;;;;;5055467;28;20175;-70
2023/08/22 03:22:26;;;;;;;3.43;0.80;;;26.30;27.70;;;;;;5056972;28;20256;-68
2023/08/22 03:24:53;;;;;;;3.67;0.80;;;25.90;29.50;;;;;;5073065;28;20187;-68
2023/08/22 03:27:21;;;;;;;3.33;0.90;;;25.90;29.00;;;;;;5077742;28;20575;-68
2023/08/22 03:29:48;;;;;;;3.37;0.83;;;25.80;30.00;;;;;;5073527;28;20178;-67
2023/08/22 03:32:15;;;;;;;1.63;0.70;;;25.50;29.10;;;;;;5073948;28;20214;-65
2023/08/22 03:34:42;;;;;;;0.63;0.60;;;25.30;29.20;;;;;;5072850;28;20226;-75
2023/08/22 03:37:10;;;;;;;3.83;0.80;;;25.20;28.80;;;;;;5072175;28;20256;-68
2023/08/22 03:39:37;;;;;;;4.60;1.07;;;25.30;29.20;;;;;;5075821;28;20237;-66
2023/08/22 03:42:05;;;;;;;4.07;1.13;;;25.50;31.50;;;;;;5071183;28;20618;-74
2023/08/22 03:44:32;;;;;;;1.47;0.80;;;25.50;33.80;;;;;;5073659;28;20175;-74
2023/08/22 03:46:59;;;;;;;0.80;0.70;;;25.50;31.40;;;;;;5075737;28;20176;-76
2023/08/22 03:49:27;;;;;;;3.23;1.43;;;25.40;30.20;;;;;;5076629;28;20190;-76
2023/08/22 03:51:54;;;;;;;5.43;1.30;;;25.40;31.10;;;;;;5074508;28;20218;-75
2023/08/22 03:54:22;;;;;;;4.00;1.50;;;25.30;35.70;;;;;;5074844;28;20182;-77
2023/08/22 03:56:50;;;;;;;4.30;1.60;;;25.20;39.20;;;;;;5073357;28;20257;-74
2023/08/22 03:59:17;;;;;;;4.10;1.17;;;25.10;40.00;;;;;;5076515;28;20562;-74
2023/08/22 04:01:44;;;;;;;3.23;1.17;;;24.90;40.30;;;;;;5069838;28;20258;-76
2023/08/22 04:04:14;;;;;;;5.17;1.40;;;24.80;41.20;;;;;;5074958;28;20574;-72
2023/08/22 04:06:42;;;;;;;1.83;1.00;;;24.60;42.50;;;;;;5073400;28;20179;-72
2023/08/22 04:09:10;;;;;;;1.67;1.13;;;24.50;42.60;;;;;;5073204;28;20230;-72
2023/08/22 04:11:39;;;;;;;2.87;1.00;;;24.60;42.10;;;;;;5073240;28;20198;-67
2023/08/22 04:14:06;;;;;;;2.83;1.03;;;24.50;41.90;;;;;;5055129;28;20179;-74
2023/08/22 04:16:33;;;;;;;3.33;1.20;;;24.60;41.30;;;;;;5070214;28;20218;-76
2023/08/22 04:19:01;;;;;;;2.67;1.30;;;24.50;41.60;;;;;;5072163;28;20508;-75
2023/08/22 04:21:28;;;;;;;4.00;1.60;;;24.40;41.80;;;;;;5072006;28;20261;-74
2023/08/22 04:23:57;;;;;;;2.27;1.13;;;24.40;41.60;;;;;;5072715;28;20520;-76
2023/08/22 04:26:24;;;;;;;4.17;1.30;;;24.40;41.80;;;;;;5069890;28;20565;-76
2023/08/22 04:28:51;;;;;;;4.57;1.20;;;24.40;41.70;;;;;;5070551;28;20203;-73
2023/08/22 04:31:19;;;;;;;2.97;1.17;;;24.60;42.30;;;;;;5073986;28;20210;-71
2023/08/22 04:33:46;;;;;;;5.20;1.57;;;24.50;42.20;;;;;;5074607;28;20649;-74
2023/08/22 04:36:13;;;;;;;5.37;1.43;;;24.30;42.90;;;;;;5073577;28;20635;-74
2023/08/22 04:38:41;;;;;;;2.10;1.17;;;24.30;43.20;;;;;;5072378;28;20645;-75
2023/08/22 04:41:08;;;;;;;4.20;1.53;;;24.30;43.60;;;;;;5074577;28;20183;-74
2023/08/22 04:43:35;;;;;;;2.80;1.23;;;24.30;43.40;;;;;;5073750;28;20179;-68
2023/08/22 04:46:02;;;;;;;6.43;1.40;;;24.30;43.10;;;;;;5072285;28;20275;-71
2023/08/22 04:48:30;;;;;;;5.70;1.20;;;24.90;42.30;;;;;;5072254;28;20183;-71
2023/08/22 04:50:57;;;;;;;7.67;1.47;;;25.50;41.30;;;;;;5071143;28;20534;-70
2023/08/22 04:53:24;;;;;;;3.83;1.50;;;26.20;40.30;;;;;;5071212;28;20642;-72
2023/08/22 04:55:55;;;;;;;4.73;2.03;;;26.00;40.40;;;;;;5073183;28;20191;-73
2023/08/22 04:58:22;;;;;;;3.47;1.40;;;25.80;40.40;;;;;;5072144;28;20271;-77
2023/08/22 05:00:49;;;;;;;5.67;1.40;;;25.70;41.20;;;;;;5074278;28;20359;-73
2023/08/22 05:03:19;;;;;;;2.90;1.40;;;26.40;40.00;;;;;;5073092;28;20233;-77
2023/08/22 05:05:46;;;;;;;2.77;1.20;;;26.30;40.30;;;;;;5074515;28;20191;-70
2023/08/22 05:08:14;;;;;;;5.13;1.40;;;26.70;39.30;;;;;;5072414;28;20249;-74
2023/08/22 05:10:41;;;;;;;5.57;1.33;;;26.70;39.30;;;;;;5074821;28;20172;-73
2023/08/22 05:13:08;;;;;;;3.70;1.50;;;26.70;38.70;;;;;;5070141;28;20176;-66
2023/08/22 05:15:36;;;;;;;4.10;1.13;;;26.20;39.00;;;;;;5073619;28;20191;-76
2023/08/22 05:18:03;;;;;;;6.77;1.40;;;26.20;38.50;;;;;;5069524;28;20222;-73
2023/08/22 05:20:31;;;;;;;4.13;1.20;;;26.20;38.20;;;;;;5075136;28;20210;-73
2023/08/22 05:22:58;;;;;;;3.37;1.77;;;25.50;39.40;;;;;;5079889;28;20186;-75
2023/08/22 05:25:25;;;;;;;3.27;1.80;;;25.00;42.30;;;;;;5077198;28;20202;-67
2023/08/22 05:27:53;;;;;;;4.33;1.83;;;24.60;44.30;;;;;;5074263;28;20597;-72
2023/08/22 05:30:21;;;;;;;4.80;2.10;;;24.30;45.10;;;;;;5076928;28;20191;-74
2023/08/22 05:32:48;;;;;;;5.70;1.90;;;24.40;45.30;;;;;;5075364;28;20240;-75
2023/08/22 05:35:15;;;;;;;3.63;1.90;;;24.10;45.00;;;;;;5079207;28;20176;-73
2023/08/22 05:37:43;;;;;;;6.83;1.67;;;23.90;46.00;;;;;;5081586;28;20261;-71
2023/08/22 05:40:11;;;;;;;6.90;1.77;;;23.60;45.60;;;;;;5078033;28;20704;-65
2023/08/22 05:42:38;;;;;;;3.90;1.53;;;23.50;45.40;;;;;;5081611;28;20187;-78
2023/08/22 05:45:06;;;;;;;4.57;1.60;;;23.30;44.40;;;;;;5076290;28;20257;-67
2023/08/22 05:47:33;;;;;;;3.57;1.57;;;23.30;44.40;;;;;;5058105;28;20207;-75
2023/08/22 05:50:01;;;;;;;5.30;1.90;;;23.50;43.80;;;;;;5078378;28;20187;-67
2023/08/22 05:52:28;;;;;;;3.70;1.83;;;23.60;42.90;;;;;;5075681;28;20215;-68
2023/08/22 05:54:56;;;;;;;3.43;1.63;;;23.70;42.30;;;;;;5081706;28;20311;-70
2023/08/22 05:57:23;;;;;;;5.80;1.87;;;23.50;42.40;;;;;;5077440;28;20238;-75
2023/08/22 05:59:51;;;;;;;3.03;1.40;;;23.30;42.80;;;;;;5077299;28;20186;-76
2023/08/22 06:02:18;;;;;;;1.77;1.17;;;23.10;43.30;;;;;;5079123;28;20189;-73
2023/08/22 06:04:48;;;;;;;2.67;1.40;;;22.80;43.90;;;;;;5078879;28;20183;-71
2023/08/22 06:07:16;;;;;;;4.47;1.53;;;22.80;44.10;;;;;;5079680;28;20205;-70
2023/08/22 06:09:43;;;;;;;5.37;1.70;;;22.60;44.40;;;;;;5078117;28;20325;-72
2023/08/22 06:12:11;;;;;;;3.70;1.80;;;22.60;44.40;;;;;;5076444;28;20186;-68
2023/08/22 06:14:39;;;;;;;3.47;1.80;;;22.40;44.60;;;;;;5058425;28;20183;-67
2023/08/22 06:17:07;;;;;;;3.87;1.50;;;22.30;44.80;;;;;;5078004;28;20230;-67
2023/08/22 06:19:34;;;;;;;3.30;1.37;;;22.30;44.90;;;;;;5073429;28;20641;-70
2023/08/22 06:22:02;;;;;;;4.37;1.53;;;22.30;44.60;;;;;;5071832;28;20179;-68
2023/08/22 06:24:29;;;;;;;5.43;1.80;;;23.00;43.30;;;;;;5074619;28;20180;-70
2023/08/22 06:27:00;;;;;;;3.77;1.70;;;22.90;43.40;;;;;;5073343;28;20647;-69
2023/08/22 06:29:27;;;;;;;7.23;1.50;;;22.80;44.00;;;;;;5078419;28;20286;-67
2023/08/22 06:31:54;;;;;;;4.17;1.53;;;22.50;44.30;;;;;;5075588;28;20179;-68
2023/08/22 06:34:22;;;;;;;8.73;1.73;;;22.40;44.80;;;;;;5054389;28;20214;-67
2023/08/22 06:36:49;;;;;;;4.43;1.80;;;22.20;45.10;;;;;;5059168;28;20683;-71
2023/08/22 06:39:16;;;;;;;5.73;2.10;;;22.10;45.20;;;;;;5072271;28;20194;-67
2023/08/22 06:41:44;;;;;;;5.57;1.63;;;21.90;45.70;;;;;;5057137;28;20191;-69
2023/08/22 06:44:11;;;;;;;3.03;1.80;;;21.80;46.10;;;;;;5061269;28;20175;-71
2023/08/22 06:46:38;;;;;;;6.03;1.90;;;21.80;46.40;;;;;;5075017;28;20191;-67
2023/08/22 06:49:06;;;;;;;6.20;1.93;;;21.70;46.60;;;;;;5076944;28;20183;-68
2023/08/22 06:51:33;;;;;;;4.63;1.67;;;21.60;47.10;;;;;;5074332;28;20614;-72
2023/08/22 06:54:01;;;;;;;7.03;2.23;;;21.50;47.40;;;;;;5071350;28;20230;-72
2023/08/22 06:56:28;;;;;;;3.23;1.57;;;21.50;47.70;;;;;;5074101;28;20204;-71
2023/08/22 06:58:56;;;;;;;5.40;1.50;;;21.60;47.30;;;;;;5074286;28;20225;-67
2023/08/22 07:01:23;;;;;;;3.13;1.60;;;21.80;47.00;;;;;;5073429;28;20184;-69
2023/08/22 07:03:50;;;;;;;2.20;1.47;;;21.60;47.90;;;;;;5074008;28;20198;-68
2023/08/22 07:06:18;;;;;;;4.10;1.63;;;21.40;48.40;;;;;;5071190;28;20351;-70
2023/08/22 07:08:45;;;;;;;4.60;1.67;;;21.30;49.10;;;;;;5063722;28;20305;-72
2023/08/22 07:11:12;;;;;;;8.80;1.73;;;21.10;49.90;;;;;;5069703;28;20207;-70
2023/08/22 07:13:40;;;;;;;6.07;1.60;;;20.90;50.80;;;;;;5071324;28;20291;-70
2023/08/22 07:16:07;;;;;;;4.37;1.50;;;20.80;51.70;;;;;;5077658;28;20646;-71
2023/08/22 07:18:35;;;;;;;3.43;1.63;;;20.80;52.60;;;;;;5075020;28;20648;-68
2023/08/22 07:21:07;;;;;;;7.73;1.50;;;20.60;53.30;;;;;;5074930;28;20174;-68
2023/08/22 07:23:34;;;;;;;6.17;1.60;;;20.50;53.50;;;;;;5075466;28;20193;-70
2023/08/22 07:26:01;;;;;;;7.90;1.90;;;20.40;54.10;;;;;;5076367;28;20625;-67
2023/08/22 07:28:29;;;;;;;4.30;1.57;;;20.30;54.70;;;;;;5075435;28;20667;-66
2023/08/22 07:30:56;;;;;;;4.63;1.67;;;20.20;55.60;;;;;;5071741;28;20175;-68
2023/08/22 07:33:23;;;;;;;3.90;1.90;;;20.10;56.60;;;;;;5076546;28;20565;-69
2023/08/22 07:35:51;;;;;;;1.73;1.53;;;20.00;57.30;;;;;;5071726;28;20187;-68
2023/08/22 07:38:18;;;;;;;3.77;1.70;;;19.90;57.90;;;;;;5074474;28;20230;-67
2023/08/22 07:40:45;;;;;;;4.37;1.63;;;19.80;58.40;;;;;;5073549;28;20656;-67
2023/08/22 07:43:13;;;;;;;4.33;1.70;;;19.70;58.90;;;;;;5076500;28;20484;-68
2023/08/22 07:45:40;;;;;;;4.27;1.80;;;19.60;59.40;;;;;;5072105;28;20225;-67
2023/08/22 07:48:07;;;;;;;2.90;1.50;;;19.50;60.00;;;;;;5078342;28;20629;-68
2023/08/22 07:50:35;;;;;;;7.80;1.87;;;19.50;60.30;;;;;;5077838;28;20179;-69
2023/08/22 07:53:04;;;;;;;6.53;1.87;;;19.40;60.40;;;;;;5076323;28;20211;-68
2023/08/22 07:55:32;;;;;;;5.67;2.07;;;19.30;60.60;;;;;;5078238;28;20297;-73
2023/08/22 07:57:59;;;;;;;5.07;2.03;;;19.30;60.70;;;;;;5072025;28;20223;-73
2023/08/22 08:00:26;;;;;;;7.77;4.57;;;19.30;60.70;;;;;;5076742;28;20198;-71
2023/08/22 08:02:54;;;;;;;6.27;3.20;;;19.30;61.00;;;;;;5077976;28;20183;-73
2023/08/22 08:05:22;;;;;;;18.80;7.20;;;19.20;61.20;;;;;;5080900;28;20178;-73
2023/08/22 08:07:49;;;;;;;6.47;4.13;;;19.20;61.30;;;;;;5075470;28;20194;-74
2023/08/22 08:10:16;;;;;;;6.33;3.60;;;19.20;61.70;;;;;;5080019;28;20238;-74
2023/08/22 08:12:44;;;;;;;10.90;2.80;;;19.10;61.70;;;;;;5076796;28;20190;-71
2023/08/22 08:15:11;;;;;;;6.80;2.30;;;19.10;61.80;;;;;;5080909;28;20179;-75
2023/08/22 08:17:39;;;;;;;4.77;2.30;;;19.00;61.80;;;;;;5076713;28;20222;-75
2023/08/22 08:20:10;;;;;;;6.40;2.67;;;19.00;62.10;;;;;;5074573;28;20188;-75
2023/08/22 08:22:38;;;;;;;6.10;2.20;;;18.90;62.50;;;;;;5072864;28;20182;-72
2023/08/22 08:25:05;;;;;;;10.83;3.47;;;18.90;62.50;;;;;;5080207;28;20182;-73
2023/08/22 08:27:33;;;;;;;5.37;1.97;;;19.00;62.10;;;;;;5075884;28;20190;-75
2023/08/22 08:30:05;;;;;;;7.20;2.50;;;19.00;62.40;;;;;;5072484;28;20543;-74
2023/08/22 08:32:33;;;;;;;4.40;1.93;;;18.90;62.60;;;;;;5075163;28;20187;-74
2023/08/22 08:35:00;;;;;;;6.63;2.23;;;18.90;62.40;;;;;;5068058;28;20536;-73
2023/08/22 08:37:28;;;;;;;5.63;2.37;;;18.80;62.70;;;;;;5082306;28;20210;-72
2023/08/22 08:39:55;;;;;;;8.30;2.30;;;18.80;62.60;;;;;;5071541;28;20194;-73
2023/08/22 08:42:24;;;;;;;6.83;2.20;;;18.80;62.80;;;;;;5079823;28;20186;-74
2023/08/22 08:44:52;;;;;;;4.40;2.07;;;18.80;62.90;;;;;;5075266;28;20187;-73
2023/08/22 08:47:19;;;;;;;6.73;2.10;;;18.70;62.50;;;;;;5081128;28;20637;-74
2023/08/22 08:49:47;;;;;;;5.20;2.00;;;18.70;62.50;;;;;;5056530;28;20664;-73
2023/08/22 08:52:15;;;;;;;4.23;2.50;;;18.70;62.50;;;;;;5072573;28;20706;-73
2023/08/22 08:54:43;;;;;;;5.17;2.17;;;18.70;62.40;;;;;;5071840;28;20682;-74
2023/08/22 08:57:11;;;;;;;4.77;1.97;;;18.60;62.10;;;;;;5070130;28;20259;-73
2023/08/22 08:59:40;;;;;;;4.87;2.27;;;18.80;61.60;;;;;;5072504;28;20179;-68
2023/08/22 09:02:15;;;;;;;5.33;2.33;;;18.70;61.30;;;;;;5074224;28;20219;-70
2023/08/22 09:04:43;;;;;;;4.40;2.10;;;18.80;60.60;;;;;;5074575;28;20191;-68
2023/08/22 09:07:10;;;;;;;5.50;2.10;;;18.80;60.30;;;;;;5073186;28;20187;-74
2023/08/22 09:09:38;;;;;;;7.13;2.17;;;18.80;60.10;;;;;;5079833;28;20365;-71
2023/08/22 09:12:10;;;;;;;3.87;1.90;;;18.80;59.90;;;;;;5085731;28;20645;-70
2023/08/22 09:14:48;;;;;;;5.00;2.17;;;18.90;59.40;;;;;;5078492;28;20236;-72
2023/08/22 09:17:18;;;;;;;7.70;2.50;;;19.00;58.40;;;;;;5074658;28;20225;-67
2023/08/22 09:19:46;;;;;;;6.93;2.50;;;19.00;58.70;;;;;;5079946;28;20517;-69
2023/08/22 09:22:15;;;;;;;6.90;3.43;;;19.00;58.80;;;;;;5076060;28;20179;-69
2023/08/22 09:24:53;;;;;;;5.00;2.27;;;19.00;57.60;;;;;;5083127;28;20231;-74
2023/08/22 09:27:29;;;;;;;7.60;2.80;;;19.30;56.00;;;;;;5063228;28;20690;-68
2023/08/22 09:30:07;;;;;;;9.40;3.43;;;19.30;58.20;;;;;;5074672;28;20187;-71
2023/08/22 09:32:34;;;;;;;7.10;2.93;;;19.30;58.50;;;;;;5052074;28;20203;-73
2023/08/22 09:35:02;;;;;;;7.30;2.87;;;19.30;58.60;;;;;;5071721;28;20644;-76
2023/08/22 09:37:35;;;;;;;7.23;2.20;;;19.30;57.00;;;;;;5078553;28;20242;-71
2023/08/22 09:40:08;;;;;;;4.33;1.90;;;19.30;55.50;;;;;;5080874;28;20186;-68
2023/08/22 09:42:39;;;;;;;2.93;1.70;;;19.70;52.10;;;;;;5077349;28;20206;-74
2023/08/22 09:45:07;;;;;;;2.47;1.90;;;20.30;46.60;;;;;;5079944;28;20676;-68
2023/08/22 09:47:40;;;;;;;5.20;1.90;;;20.50;45.30;;;;;;5063688;28;20182;-74
2023/08/22 09:50:09;;;;;;;4.93;1.77;;;20.60;45.40;;;;;;5078908;28;20191;-72
2023/08/22 09:52:38;;;;;;;2.20;1.70;;;20.50;45.30;;;;;;5079806;28;20190;-70
2023/08/22 09:55:07;;;;;;;5.50;2.10;;;20.40;45.10;;;;;;5079815;28;20220;-68
2023/08/22 09:57:35;;;;;;;1.90;1.70;;;20.40;44.80;;;;;;5078433;28;20215;-66
2023/08/22 10:00:04;;;;;;;4.03;1.90;;;20.30;45.40;;;;;;5079685;28;20179;-66
2023/08/22 10:02:35;;;;;;;7.70;2.30;;;20.30;46.30;;;;;;5079269;28;20222;-67
2023/08/22 10:05:04;;;;;;;4.83;2.00;;;20.10;47.90;;;;;;5077064;28;20178;-72
2023/08/22 10:07:31;;;;;;;3.70;2.17;;;20.00;49.30;;;;;;5079023;28;20187;-72
2023/08/22 10:09:59;;;;;;;4.20;2.53;;;19.90;50.40;;;;;;5063315;28;20306;-70
2023/08/22 10:12:27;;;;;;;2.93;2.13;;;19.80;51.30;;;;;;5060705;28;20184;-67
2023/08/22 10:14:58;;;;;;;4.23;2.27;;;19.70;51.80;;;;;;5058562;28;20222;-65
2023/08/22 10:17:29;;;;;;;4.73;2.00;;;19.60;52.30;;;;;;5058689;28;20212;-65
2023/08/22 10:20:06;;;;;;;3.33;1.80;;;19.50;53.10;;;;;;5055173;28;20211;-72
2023/08/22 10:22:34;;;;;;;2.60;2.00;;;19.40;54.20;;;;;;5056613;28;20188;-76
2023/08/22 10:25:06;;;;;;;2.87;2.07;;;19.30;54.70;;;;;;5059232;28;20230;-67
2023/08/22 10:27:39;;;;;;;6.00;2.33;;;19.30;55.00;;;;;;5056723;28;20180;-66
2023/08/22 10:30:17;;;;;;;3.23;2.00;;;19.20;55.10;;;;;;5058882;28;20222;-67
2023/08/22 10:33:07;;;;;;;3.87;2.10;;;19.20;54.60;;;;;;5034795;28;20188;-69
2023/08/22 10:35:34;;;;;;;2.87;2.03;;;19.20;55.00;;;;;;5056399;28;20176;-67
2023/08/22 10:38:01;;;;;;;4.87;2.00;;;19.10;55.80;;;;;;5039839;28;20211;-65
2023/08/22 10:40:31;;;;;;;3.40;2.00;;;19.00;55.70;;;;;;5055149;28;20254;-66
2023/08/22 10:43:10;;;;;;;4.13;1.80;;;18.90;56.40;;;;;;5038522;28;20249;-71
2023/08/22 10:45:38;;;;;;;3.93;2.10;;;18.80;56.60;;;;;;5056969;28;20226;-66
2023/08/22 10:48:12;;;;;;;5.23;2.37;;;18.80;56.70;;;;;;5053070;28;20267;-67
2023/08/22 10:50:47;;;;;;;3.13;2.30;;;18.80;56.60;;;;;;5058416;28;20229;-66
2023/08/22 10:53:27;;;;;;;4.17;2.27;;;18.80;56.50;;;;;;5053860;28;20661;-67
2023/08/22 10:55:57;;;;;;;3.90;2.10;;;18.80;56.40;;;;;;5049323;28;20549;-66
2023/08/22 10:58:37;;;;;;;5.00;2.07;;;18.80;56.40;;;;;;5054734;28;20736;-66
2023/08/22 11:01:10;;;;;;;3.50;1.80;;;18.80;56.30;;;;;;5062965;28;20602;-66
2023/08/22 11:03:38;;;;;;;2.87;1.90;;;18.80;56.20;;;;;;5054902;28;20183;-67
2023/08/22 11:06:18;;;;;;;8.83;2.00;;;18.70;56.20;;;;;;5054677;28;20523;-67
2023/08/22 11:08:46;;;;;;;4.57;1.93;;;18.70;55.90;;;;;;5062439;28;20230;-69
2023/08/22 11:11:15;;;;;;;3.00;2.13;;;18.70;55.80;;;;;;5076030;28;20309;-69
2023/08/22 11:13:44;;;;;;;4.07;2.00;;;18.60;56.00;;;;;;5062554;28;20339;-67
2023/08/22 11:16:17;;;;;;;5.50;1.90;;;18.50;56.20;;;;;;5076056;28;20179;-66
2023/08/22 11:18:48;;;;;;;5.70;2.10;;;18.40;56.50;;;;;;5077976;28;20256;-69
2023/08/22 11:21:16;;;;;;;4.13;2.00;;;18.30;56.70;;;;;;5075412;28;20233;-71
2023/08/22 11:23:44;;;;;;;6.87;2.50;;;18.30;57.00;;;;;;5073660;28;20187;-71
2023/08/22 11:26:12;;;;;;;4.23;1.97;;;18.20;56.80;;;;;;5074720;28;20210;-69
2023/08/22 11:28:40;;;;;;;5.17;2.57;;;18.20;57.40;;;;;;5076952;28;20540;-70
2023/08/22 11:31:16;;;;;;;5.50;2.40;;;18.20;57.10;;;;;;5072921;28;20179;-67
2023/08/22 11:33:49;;;;;;;7.27;2.93;;;18.20;57.20;;;;;;5077135;28;20562;-68
2023/08/22 11:36:17;;;;;;;4.73;2.37;;;18.30;57.10;;;;;;5076076;28;20179;-73
2023/08/22 11:38:47;;;;;;;6.23;3.33;;;18.40;57.10;;;;;;5074998;28;20265;-72
2023/08/22 11:41:14;;;;;;;4.87;2.80;;;18.40;57.10;;;;;;5074912;28;22239;-75
2023/08/22 11:43:51;;;;;;;5.40;2.90;;;18.50;57.20;;;;;;5072375;28;20770;-72
2023/08/22 11:46:21;;;;;;;7.80;2.20;;;18.50;57.30;;;;;;5069930;28;20547;-68
2023/08/22 11:48:51;;;;;;;6.87;2.10;;;18.50;56.60;;;;;;5067624;28;20190;-73
2023/08/22 11:51:22;;;;;;;4.67;2.53;;;18.50;56.90;;;;;;5077883;28;20182;-74
2023/08/22 11:53:49;;;;;;;3.97;2.33;;;18.60;57.50;;;;;;5084536;28;20174;-71
2023/08/22 11:56:18;;;;;;;4.80;2.20;;;18.60;57.70;;;;;;5076587;28;20214;-68
2023/08/22 11:58:53;;;;;;;4.90;2.33;;;18.70;55.10;;;;;;5073833;28;20294;-74
2023/08/22 12:01:24;;;;;;;2.77;1.93;;;18.80;57.60;;;;;;5075850;28;20556;-72
2023/08/22 12:03:56;;;;;;;6.50;2.20;;;18.80;56.30;;;;;;5072900;28;20197;-71
2023/08/22 12:06:24;;;;;;;3.23;2.10;;;18.90;55.90;;;;;;5076868;28;20681;-70
2023/08/22 12:09:00;;;;;;;3.20;2.00;;;18.80;56.30;;;;;;5078804;28;20235;-73
2023/08/22 12:11:28;;;;;;;3.50;2.10;;;18.80;57.10;;;;;;5051441;28;20187;-73
2023/08/22 12:13:56;;;;;;;3.97;2.27;;;18.70;58.60;;;;;;5054924;28;20188;-75
2023/08/22 12:16:23;;;;;;;7.37;2.33;;;18.50;59.20;;;;;;5054581;28;20275;-73
2023/08/22 12:18:51;;;;;;;5.17;2.40;;;18.50;60.00;;;;;;5039786;28;20206;-73
2023/08/22 12:21:18;;;;;;;6.07;2.10;;;18.50;60.40;;;;;;5052369;28;20299;-76
2023/08/22 12:23:46;;;;;;;4.33;1.97;;;18.40;60.40;;;;;;5054522;28;20702;-74
2023/08/22 12:26:13;;;;;;;4.03;2.20;;;18.40;61.10;;;;;;5042723;28;20540;-71
2023/08/22 12:28:40;;;;;;;3.90;2.30;;;18.30;64.40;;;;;;5051340;28;20202;-71
2023/08/22 12:31:08;;;;;;;2.67;2.10;;;17.80;65.90;;;;;;5054606;28;20171;-70
2023/08/22 12:33:35;;;;;;;3.43;2.33;;;17.60;68.80;;;;;;5063031;28;20326;-67
2023/08/22 12:36:02;;;;;;;4.97;2.10;;;17.20;69.00;;;;;;5060099;28;20186;-69
2023/08/22 12:38:30;;;;;;;9.00;3.10;;;17.10;71.10;;;;;;5057719;28;20223;-70
2023/08/22 12:40:59;;;;;;;7.20;2.60;;;16.80;73.20;;;;;;5059204;28;20194;-69
2023/08/22 12:43:27;;;;;;;8.37;2.30;;;16.60;75.80;;;;;;5063683;28;20593;-66
2023/08/22 12:45:54;;;;;;;5.60;2.33;;;16.30;76.80;;;;;;5059871;28;20608;-67
2023/08/22 12:48:21;;;;;;;5.00;2.30;;;16.30;77.10;;;;;;5059696;28;20552;-69
2023/08/22 12:50:49;;;;;;;5.53;2.40;;;16.30;77.30;;;;;;5061050;28;20187;-67
2023/08/22 12:53:16;;;;;;;5.33;1.90;;;16.30;77.80;;;;;;5061863;28;20256;-65